createdAt,value
2023-03-17T00:01:14.509Z,8.53
2023-03-17T00:03:42.612Z,8.83
2023-03-17T00:06:29.751Z,9.83
2023-03-17T00:08:58.868Z,8.40
2023-03-17T00:11:27.400Z,10.37
2023-03-17T00:13:55.698Z,9.63
2023-03-17T00:16:25.445Z,8.60
2023-03-17T00:18:56.749Z,8.57
2023-03-17T00:21:32.231Z,8.43
2023-03-17T00:23:59.635Z,13.10
2023-03-17T00:26:27.516Z,8.30
2023-03-17T00:28:55.202Z,10.00
2023-03-17T00:31:24.280Z,8.90
2023-03-17T00:33:54.171Z,9.30
2023-03-17T00:36:23.887Z,8.77
2023-03-17T00:38:52.623Z,8.87
2023-03-17T00:41:20.449Z,7.87
2023-03-17T00:43:47.643Z,7.70
2023-03-17T00:46:21.741Z,12.00
2023-03-17T00:48:50.103Z,11.37
2023-03-17T00:51:17.407Z,8.33
2023-03-17T00:53:45.666Z,8.00
2023-03-17T00:56:17.322Z,11.10
2023-03-17T00:58:45.029Z,7.80
2023-03-17T01:01:12.671Z,9.80
2023-03-17T01:03:41.545Z,8.30
2023-03-17T01:06:11.019Z,9.67
2023-03-17T01:08:39.280Z,9.40
2023-03-17T01:11:14.905Z,6.80
2023-03-17T01:13:42.688Z,7.50
2023-03-17T01:16:11.767Z,8.90
2023-03-17T01:18:39.560Z,8.17
2023-03-17T01:21:07.983Z,9.50
2023-03-17T01:23:36.486Z,12.20
2023-03-17T01:26:03.746Z,10.80
2023-03-17T01:28:32.541Z,12.53
2023-03-17T01:31:02.973Z,12.33
2023-03-17T01:33:31.084Z,8.70
2023-03-17T01:35:58.310Z,8.30
2023-03-17T01:38:27.344Z,8.70
2023-03-17T01:40:56.637Z,9.47
2023-03-17T01:43:29.344Z,10.00
2023-03-17T01:46:16.166Z,10.53
2023-03-17T01:48:47.490Z,10.20
2023-03-17T01:51:24.092Z,8.60
2023-03-17T01:53:52.763Z,9.33
2023-03-17T01:56:20.291Z,8.87
2023-03-17T01:58:51.548Z,9.13
2023-03-17T02:01:21.067Z,10.40
2023-03-17T02:03:50.854Z,7.07
2023-03-17T02:06:19.546Z,8.20
2023-03-17T02:08:47.803Z,11.63
2023-03-17T02:11:15.403Z,7.30
2023-03-17T02:13:44.617Z,8.23
2023-03-17T02:16:18.738Z,7.50
2023-03-17T02:18:47.885Z,9.60
2023-03-17T02:21:31.850Z,9.30
2023-03-17T02:24:01.544Z,11.80
2023-03-17T02:26:30.317Z,7.93
2023-03-17T02:28:57.463Z,9.57
2023-03-17T02:31:25.892Z,8.83
2023-03-17T02:33:53.192Z,9.53
2023-03-17T02:36:22.929Z,9.50
2023-03-17T02:38:50.200Z,10.13
2023-03-17T02:41:17.583Z,9.00
2023-03-17T02:43:44.878Z,8.03
2023-03-17T02:46:12.115Z,12.87
2023-03-17T02:48:39.493Z,8.93
2023-03-17T02:51:07.081Z,9.87
2023-03-17T02:53:34.427Z,8.93
2023-03-17T02:56:02.175Z,8.80
2023-03-17T02:58:29.891Z,9.67
2023-03-17T03:00:57.069Z,8.43
2023-03-17T03:03:24.472Z,10.57
2023-03-17T03:05:51.906Z,8.63
2023-03-17T03:08:19.196Z,8.63
2023-03-17T03:10:46.675Z,11.93
2023-03-17T03:13:13.886Z,11.00
2023-03-17T03:15:42.019Z,10.80
2023-03-17T03:18:09.769Z,8.40
2023-03-17T03:20:37.104Z,9.30
2023-03-17T03:23:06.127Z,8.53
2023-03-17T03:25:34.051Z,8.47
2023-03-17T03:28:01.288Z,7.80
2023-03-17T03:30:28.907Z,9.53
2023-03-17T03:32:56.667Z,9.00
2023-03-17T03:35:23.971Z,10.63
2023-03-17T03:37:51.348Z,9.17
2023-03-17T03:40:18.716Z,9.30
2023-03-17T03:42:46.682Z,8.67
2023-03-17T03:45:13.937Z,9.57
2023-03-17T03:47:42.084Z,8.03
2023-03-17T03:50:10.723Z,11.53
2023-03-17T03:52:38.350Z,9.47
2023-03-17T03:55:06.713Z,8.70
2023-03-17T03:57:33.961Z,10.93
2023-03-17T04:00:01.565Z,8.47
2023-03-17T04:02:39.982Z,8.00
2023-03-17T04:05:09.590Z,13.70
2023-03-17T04:07:37.657Z,9.00
2023-03-17T04:10:06.293Z,8.60
2023-03-17T04:12:33.495Z,10.83
2023-03-17T04:15:02.309Z,9.07
2023-03-17T04:17:29.523Z,9.90
2023-03-17T04:19:57.107Z,9.13
2023-03-17T04:22:24.677Z,9.77
2023-03-17T04:24:52.116Z,9.10
2023-03-17T04:27:19.341Z,8.07
2023-03-17T04:29:47.500Z,9.97
2023-03-17T04:32:15.935Z,10.70
2023-03-17T04:34:43.928Z,10.10
2023-03-17T04:37:11.612Z,10.43
2023-03-17T04:39:39.257Z,9.13
2023-03-17T04:42:07.501Z,9.17
2023-03-17T04:44:34.881Z,7.87
2023-03-17T04:47:02.096Z,8.93
2023-03-17T04:49:31.570Z,10.90
2023-03-17T04:51:58.760Z,8.47
2023-03-17T04:54:26.111Z,9.37
2023-03-17T04:56:53.323Z,11.23
2023-03-17T04:59:20.960Z,8.67
2023-03-17T05:01:48.120Z,9.13
2023-03-17T05:04:28.822Z,9.53
2023-03-17T05:06:58.287Z,12.90
2023-03-17T05:09:26.716Z,12.93
2023-03-17T05:11:53.949Z,10.17
2023-03-17T05:14:21.816Z,11.37
2023-03-17T05:16:49.217Z,9.70
2023-03-17T05:19:17.514Z,9.73
2023-03-17T05:21:45.410Z,12.30
2023-03-17T05:24:13.069Z,9.30
2023-03-17T05:26:40.889Z,10.20
2023-03-17T05:29:08.943Z,10.40
2023-03-17T05:31:36.361Z,13.00
2023-03-17T05:34:06.203Z,14.10
2023-03-17T05:36:33.577Z,12.07
2023-03-17T05:39:01.865Z,14.33
2023-03-17T05:41:29.483Z,11.70
2023-03-17T05:43:56.871Z,9.40
2023-03-17T05:46:24.141Z,8.97
2023-03-17T05:48:52.314Z,11.47
2023-03-17T05:51:20.630Z,15.90
2023-03-17T05:53:47.903Z,13.33
2023-03-17T05:56:16.038Z,15.07
2023-03-17T05:58:43.380Z,14.40
2023-03-17T06:01:10.559Z,10.93
2023-03-17T06:03:41.213Z,9.83
2023-03-17T06:06:09.536Z,11.77
2023-03-17T06:08:36.837Z,16.20
2023-03-17T06:11:04.135Z,14.80
2023-03-17T06:13:31.326Z,17.03
2023-03-17T06:15:58.521Z,11.87
2023-03-17T06:18:25.893Z,11.30
2023-03-17T06:20:53.319Z,17.57
2023-03-17T06:23:20.802Z,16.20
2023-03-17T06:25:47.959Z,13.40
2023-03-17T06:28:17.381Z,15.37
2023-03-17T06:30:47.149Z,11.33
2023-03-17T06:33:19.137Z,13.00
2023-03-17T06:35:46.733Z,9.40
2023-03-17T06:38:16.141Z,17.20
2023-03-17T06:40:43.344Z,16.27
2023-03-17T06:43:10.893Z,10.97
2023-03-17T06:45:38.029Z,11.77
2023-03-17T06:48:05.369Z,12.57
2023-03-17T06:50:33.101Z,17.63
2023-03-17T06:53:00.405Z,16.13
2023-03-17T06:55:27.588Z,11.87
2023-03-17T06:57:54.777Z,13.10
2023-03-17T07:00:22.928Z,14.43
2023-03-17T07:02:50.109Z,12.80
2023-03-17T07:05:17.824Z,16.17
2023-03-17T07:07:45.009Z,16.33
2023-03-17T07:10:13.652Z,11.97
2023-03-17T07:12:41.286Z,16.50
2023-03-17T07:15:09.455Z,12.00
2023-03-17T07:17:36.703Z,14.70
2023-03-17T07:20:04.050Z,15.17
2023-03-17T07:22:31.222Z,12.70
2023-03-17T07:24:58.557Z,15.43
2023-03-17T07:27:26.388Z,13.93
2023-03-17T07:29:54.216Z,12.50
2023-03-17T07:32:21.477Z,15.40
2023-03-17T07:34:49.243Z,14.53
2023-03-17T07:37:17.584Z,9.30
2023-03-17T07:39:47.108Z,10.57
2023-03-17T07:42:15.371Z,12.93
2023-03-17T07:44:42.715Z,9.97
2023-03-17T07:47:11.255Z,11.90
2023-03-17T07:49:41.956Z,12.50
2023-03-17T07:52:10.497Z,11.37
2023-03-17T07:54:38.075Z,12.27
2023-03-17T07:57:06.316Z,9.83
2023-03-17T07:59:33.920Z,8.87
2023-03-17T08:02:01.340Z,13.93
2023-03-17T08:04:29.258Z,13.10
2023-03-17T08:06:57.686Z,12.63
2023-03-17T08:09:26.469Z,10.63
2023-03-17T08:11:53.671Z,16.53
2023-03-17T08:14:21.199Z,12.03
2023-03-17T08:16:48.483Z,12.00
2023-03-17T08:19:16.990Z,9.63
2023-03-17T08:21:44.452Z,9.60
2023-03-17T08:24:11.940Z,14.90
2023-03-17T08:26:39.416Z,11.80
2023-03-17T08:29:07.907Z,12.03
2023-03-17T08:31:35.725Z,10.70
2023-03-17T08:34:03.072Z,11.23
2023-03-17T08:36:30.615Z,7.67
2023-03-17T08:38:57.865Z,8.43
2023-03-17T08:41:27.378Z,8.03
2023-03-17T08:43:56.177Z,8.10
2023-03-17T08:46:24.879Z,8.83
2023-03-17T08:48:52.708Z,7.93
2023-03-17T08:51:23.692Z,7.23
2023-03-17T08:53:52.280Z,9.37
2023-03-17T08:56:19.694Z,10.93
2023-03-17T08:58:47.552Z,10.63
2023-03-17T09:01:15.233Z,8.63
2023-03-17T09:03:42.893Z,6.90
2023-03-17T09:06:12.590Z,6.87
2023-03-17T09:08:46.585Z,7.47
2023-03-17T09:11:16.388Z,10.60
2023-03-17T09:13:44.272Z,9.20
2023-03-17T09:16:11.581Z,8.80
2023-03-17T09:18:39.178Z,8.87
2023-03-17T09:21:06.892Z,8.90
2023-03-17T09:23:34.168Z,9.20
2023-03-17T09:26:02.192Z,6.60
2023-03-17T09:28:29.423Z,6.93
2023-03-17T09:31:01.124Z,6.17
2023-03-17T09:33:28.714Z,11.47
2023-03-17T09:35:59.292Z,8.70
2023-03-17T09:38:27.810Z,8.73
2023-03-17T09:40:55.541Z,6.93
2023-03-17T09:43:24.335Z,8.23
2023-03-17T09:45:52.487Z,7.97
2023-03-17T09:48:33.523Z,8.97
2023-03-17T09:51:05.746Z,8.40
2023-03-17T09:53:35.929Z,8.50
2023-03-17T09:56:06.812Z,7.83
2023-03-17T09:58:34.981Z,10.37
2023-03-17T10:01:05.764Z,7.13
2023-03-17T10:03:34.005Z,8.50
2023-03-17T10:06:21.723Z,6.30
2023-03-17T10:08:58.233Z,6.90
2023-03-17T10:11:35.811Z,7.03
2023-03-17T10:14:05.110Z,7.40
2023-03-17T10:16:38.736Z,9.00
2023-03-17T10:19:21.082Z,8.17
2023-03-17T10:21:51.446Z,7.90
2023-03-17T10:24:19.772Z,8.47
2023-03-17T10:26:49.609Z,7.57
2023-03-17T10:29:22.370Z,10.60
2023-03-17T10:31:49.729Z,10.27
2023-03-17T10:34:18.461Z,6.10
2023-03-17T10:36:51.629Z,6.90
2023-03-17T10:39:20.636Z,7.90
2023-03-17T10:41:58.113Z,6.53
2023-03-17T10:44:35.742Z,5.93
2023-03-17T10:47:03.962Z,6.93
2023-03-17T10:49:35.937Z,6.53
2023-03-17T10:52:07.598Z,6.20
2023-03-17T10:54:36.977Z,9.10
2023-03-17T10:57:07.735Z,7.80
2023-03-17T10:59:40.183Z,5.80
2023-03-17T11:02:18.759Z,6.00
2023-03-17T11:04:46.248Z,6.03
2023-03-17T11:07:22.171Z,5.97
2023-03-17T11:09:53.061Z,5.37
2023-03-17T11:12:25.793Z,9.27
2023-03-17T11:15:05.853Z,5.43
2023-03-17T11:17:33.004Z,7.70
2023-03-17T11:20:11.820Z,7.80
2023-03-17T11:22:41.526Z,6.10
2023-03-17T11:25:19.287Z,5.70
2023-03-17T11:27:55.636Z,8.87
2023-03-17T11:30:36.405Z,12.10
2023-03-17T11:33:29.694Z,7.57
2023-03-17T11:36:15.805Z,5.20
2023-03-17T11:38:51.455Z,8.40
2023-03-17T11:41:34.962Z,6.30
2023-03-17T11:44:18.524Z,8.00
2023-03-17T11:46:56.450Z,8.10
2023-03-17T11:49:34.508Z,6.17
2023-03-17T11:52:26.754Z,5.60
2023-03-17T11:55:00.573Z,9.67
2023-03-17T11:57:32.487Z,6.93
2023-03-17T12:00:02.561Z,8.67
2023-03-17T12:02:44.045Z,5.30
2023-03-17T12:05:12.252Z,7.30
2023-03-17T12:07:44.841Z,5.67
2023-03-17T12:10:31.303Z,8.53
2023-03-17T12:13:04.388Z,5.60
2023-03-17T12:15:36.193Z,11.90
2023-03-17T12:18:06.737Z,6.13
2023-03-17T12:20:48.950Z,5.80
2023-03-17T12:23:29.788Z,5.20
2023-03-17T12:26:06.704Z,7.03
2023-03-17T12:28:41.139Z,4.60
2023-03-17T12:31:10.547Z,5.97
2023-03-17T12:33:48.424Z,6.77
2023-03-17T12:36:17.527Z,5.40
2023-03-17T12:38:52.818Z,5.70
2023-03-17T12:41:49.469Z,5.60
2023-03-17T12:44:30.316Z,5.63
2023-03-17T12:47:17.603Z,5.23
2023-03-17T12:49:47.818Z,6.63
2023-03-17T12:52:17.977Z,5.53
2023-03-17T12:54:49.878Z,5.43
2023-03-17T12:57:21.698Z,6.10
2023-03-17T12:59:59.276Z,4.93
2023-03-17T13:02:29.479Z,5.07
2023-03-17T13:05:00.794Z,4.90
2023-03-17T13:07:34.251Z,5.00
2023-03-17T13:10:01.422Z,8.83
2023-03-17T13:12:44.326Z,4.23
2023-03-17T13:15:30.674Z,6.03
2023-03-17T13:18:16.179Z,6.07
2023-03-17T13:20:45.578Z,4.77
2023-03-17T13:23:14.357Z,5.00
2023-03-17T13:25:41.745Z,5.30
2023-03-17T13:28:12.166Z,6.43
2023-03-17T13:30:39.393Z,4.90
2023-03-17T13:33:15.675Z,4.37
2023-03-17T13:35:45.717Z,4.53
2023-03-17T13:38:39.385Z,4.33
2023-03-17T13:41:15.516Z,5.17
2023-03-17T13:43:48.939Z,4.77
2023-03-17T13:46:21.406Z,7.10
2023-03-17T13:48:49.565Z,4.30
2023-03-17T13:51:24.525Z,5.97
2023-03-17T13:53:56.854Z,5.87
2023-03-17T13:56:24.101Z,4.40
2023-03-17T13:58:51.397Z,5.40
2023-03-17T14:01:18.675Z,9.87
2023-03-17T14:03:50.546Z,9.97
2023-03-17T14:06:20.014Z,7.63
2023-03-17T14:08:55.871Z,12.03
2023-03-17T14:11:35.405Z,10.73
2023-03-17T14:14:05.880Z,9.30
2023-03-17T14:16:35.381Z,8.03
2023-03-17T14:19:11.771Z,11.43
2023-03-17T14:21:40.667Z,8.60
2023-03-17T14:24:19.700Z,9.97
2023-03-17T14:26:48.140Z,9.27
2023-03-17T14:29:16.796Z,10.27
2023-03-17T14:31:49.808Z,7.87
2023-03-17T14:34:22.732Z,9.80
2023-03-17T14:36:52.312Z,11.50
2023-03-17T14:39:21.928Z,10.50
2023-03-17T14:41:57.487Z,15.57
2023-03-17T14:44:24.670Z,7.43
2023-03-17T14:47:01.047Z,10.13
2023-03-17T14:49:28.879Z,9.50
2023-03-17T14:51:58.418Z,7.87
2023-03-17T14:54:27.695Z,7.13
2023-03-17T14:57:02.194Z,8.27
2023-03-17T14:59:34.873Z,8.37
2023-03-17T15:02:03.414Z,8.37
2023-03-17T15:04:31.972Z,9.17
2023-03-17T15:07:07.607Z,10.33
2023-03-17T15:09:34.832Z,7.43
2023-03-17T15:12:22.367Z,6.17
2023-03-17T15:14:52.802Z,6.23
2023-03-17T15:17:21.431Z,9.37
2023-03-17T15:19:50.638Z,5.83
2023-03-17T15:22:25.760Z,6.10
2023-03-17T15:25:00.199Z,4.60
2023-03-17T15:27:28.440Z,7.40
2023-03-17T15:29:56.414Z,10.17
2023-03-17T15:32:25.013Z,4.90
2023-03-17T15:34:53.248Z,7.93
2023-03-17T15:37:28.225Z,7.50
2023-03-17T15:39:56.775Z,4.50
2023-03-17T15:42:25.275Z,6.77
2023-03-17T15:44:53.638Z,5.70
2023-03-17T15:47:22.298Z,6.33
2023-03-17T15:49:50.949Z,4.57
2023-03-17T15:52:18.153Z,5.10
2023-03-17T15:54:47.224Z,6.77
2023-03-17T15:57:14.641Z,7.90
2023-03-17T15:59:41.917Z,4.83
2023-03-17T16:02:15.843Z,6.80
2023-03-17T16:04:43.092Z,5.10
2023-03-17T16:07:12.847Z,5.80
2023-03-17T16:09:40.364Z,7.00
2023-03-17T16:12:11.515Z,4.80
2023-03-17T16:14:38.948Z,4.90
2023-03-17T16:17:06.984Z,5.80
2023-03-17T16:19:34.706Z,7.40
2023-03-17T16:22:01.925Z,7.00
2023-03-17T16:24:29.076Z,6.50
2023-03-17T16:26:58.637Z,10.43
2023-03-17T16:29:25.899Z,10.43
2023-03-17T16:31:53.114Z,9.80
2023-03-17T16:34:22.220Z,11.40
2023-03-17T16:36:50.468Z,14.43
2023-03-17T16:39:23.370Z,13.93
2023-03-17T16:41:53.432Z,10.90
2023-03-17T16:44:21.465Z,9.33
2023-03-17T16:46:49.433Z,12.00
2023-03-17T16:49:19.285Z,14.10
2023-03-17T16:51:47.389Z,12.63
2023-03-17T16:54:16.127Z,12.00
2023-03-17T16:56:43.416Z,15.97
2023-03-17T16:59:12.682Z,13.80
2023-03-17T17:01:39.998Z,15.10
2023-03-17T17:04:11.037Z,13.00
2023-03-17T17:06:38.268Z,9.23
2023-03-17T17:09:05.962Z,12.10
2023-03-17T17:11:34.148Z,13.33
2023-03-17T17:14:02.012Z,10.70
2023-03-17T17:16:31.025Z,11.30
2023-03-17T17:18:59.445Z,12.93
2023-03-17T17:21:30.075Z,14.57
2023-03-17T17:23:58.523Z,20.30
2023-03-17T17:26:26.107Z,13.87
2023-03-17T17:28:54.662Z,11.57
2023-03-17T17:31:22.874Z,11.17
2023-03-17T17:33:50.617Z,13.40
2023-03-17T17:36:18.040Z,12.53
2023-03-17T17:38:45.407Z,14.07
2023-03-17T17:41:14.239Z,16.43
2023-03-17T17:43:43.817Z,14.90
2023-03-17T17:46:16.863Z,12.40
2023-03-17T17:48:44.255Z,13.67
2023-03-17T17:51:12.106Z,17.20
2023-03-17T17:53:39.654Z,17.53
2023-03-17T17:56:07.625Z,12.33
2023-03-17T17:58:35.639Z,12.73
2023-03-17T18:01:05.973Z,22.63
2023-03-17T18:03:35.152Z,16.37
2023-03-17T18:06:04.491Z,19.90
2023-03-17T18:08:31.681Z,17.50
2023-03-17T18:10:59.113Z,14.90
2023-03-17T18:13:26.834Z,15.10
2023-03-17T18:15:54.625Z,15.20
2023-03-17T18:18:22.042Z,13.90
2023-03-17T18:20:49.204Z,13.40
2023-03-17T18:23:17.438Z,12.57
2023-03-17T18:25:45.395Z,15.23
2023-03-17T18:28:13.049Z,16.10
2023-03-17T18:30:41.470Z,17.37
2023-03-17T18:33:14.048Z,18.17
2023-03-17T18:35:42.618Z,16.20
2023-03-17T18:38:09.841Z,24.13
2023-03-17T18:40:38.144Z,17.97
2023-03-17T18:43:06.267Z,17.97
2023-03-17T18:45:34.308Z,20.20
2023-03-17T18:48:02.192Z,17.87
2023-03-17T18:50:29.592Z,22.23
2023-03-17T18:52:58.207Z,21.13
2023-03-17T18:55:25.786Z,18.17
2023-03-17T18:57:54.774Z,19.33
2023-03-17T19:00:25.072Z,17.83
2023-03-17T19:02:52.986Z,15.50
2023-03-17T19:05:20.845Z,17.63
2023-03-17T19:07:49.790Z,21.23
2023-03-17T19:10:17.909Z,19.47
2023-03-17T19:12:47.116Z,19.90
2023-03-17T19:15:15.149Z,18.20
2023-03-17T19:17:42.881Z,16.60
2023-03-17T19:20:10.715Z,25.40
2023-03-17T19:22:38.086Z,11.50
2023-03-17T19:25:08.512Z,20.30
2023-03-17T19:27:35.972Z,16.47
2023-03-17T19:30:03.834Z,20.60
2023-03-17T19:32:31.594Z,22.27
2023-03-17T19:34:58.842Z,14.40
2023-03-17T19:37:26.127Z,15.53
2023-03-17T19:39:53.928Z,21.87
2023-03-17T19:42:21.986Z,19.43
2023-03-17T19:44:49.811Z,16.60
2023-03-17T19:47:17.325Z,17.83
2023-03-17T19:49:44.798Z,19.17
2023-03-17T19:52:12.095Z,25.57
2023-03-17T19:54:44.561Z,16.23
2023-03-17T19:57:13.120Z,16.03
2023-03-17T19:59:40.976Z,18.60
2023-03-17T20:02:08.347Z,23.03
2023-03-17T20:04:37.348Z,20.03
2023-03-17T20:07:08.199Z,16.43
2023-03-17T20:09:40.462Z,19.93
2023-03-17T20:12:07.796Z,22.77
2023-03-17T20:14:35.284Z,28.70
2023-03-17T20:17:02.533Z,23.50
2023-03-17T20:19:30.111Z,26.93
2023-03-17T20:21:58.467Z,18.90
2023-03-17T20:24:28.978Z,19.67
2023-03-17T20:26:57.906Z,17.03
2023-03-17T20:29:26.899Z,18.37
2023-03-17T20:31:54.517Z,16.77
2023-03-17T20:34:22.766Z,14.50
2023-03-17T20:36:51.313Z,14.67
2023-03-17T20:39:22.165Z,17.87
2023-03-17T20:41:50.780Z,16.73
2023-03-17T20:44:18.411Z,15.53
2023-03-17T20:46:45.966Z,16.50
2023-03-17T20:49:15.735Z,17.73
2023-03-17T20:51:43.648Z,12.27
2023-03-17T20:54:11.051Z,12.97
2023-03-17T20:56:39.807Z,15.10
2023-03-17T20:59:13.655Z,13.40
2023-03-17T21:01:42.418Z,18.10
2023-03-17T21:04:09.819Z,15.27
2023-03-17T21:06:38.356Z,14.90
2023-03-17T21:09:05.977Z,15.67
2023-03-17T21:11:33.319Z,15.93
2023-03-17T21:14:03.182Z,22.20
2023-03-17T21:16:31.154Z,20.97
2023-03-17T21:18:58.939Z,16.63
2023-03-17T21:21:26.979Z,16.53
2023-03-17T21:23:55.307Z,16.53
2023-03-17T21:26:23.112Z,18.43
2023-03-17T21:28:50.342Z,16.23
2023-03-17T21:31:17.590Z,19.40
2023-03-17T21:33:44.861Z,19.20
2023-03-17T21:36:12.279Z,14.03
2023-03-17T21:38:40.215Z,16.63
2023-03-17T21:41:27.845Z,14.27
2023-03-17T21:43:55.195Z,17.90
2023-03-17T21:46:22.372Z,19.70
2023-03-17T21:48:50.109Z,15.07
2023-03-17T21:51:17.832Z,16.90
2023-03-17T21:53:46.614Z,20.77
2023-03-17T21:56:14.314Z,15.43
2023-03-17T21:58:42.968Z,17.53
2023-03-17T22:01:10.205Z,17.50
2023-03-17T22:03:39.812Z,17.23
2023-03-17T22:06:07.442Z,17.47
2023-03-17T22:08:34.736Z,18.57
2023-03-17T22:11:06.458Z,17.90
2023-03-17T22:13:33.685Z,20.90
2023-03-17T22:16:01.413Z,23.23
2023-03-17T22:18:28.734Z,16.20
2023-03-17T22:20:57.505Z,20.57
2023-03-17T22:23:25.528Z,19.30
2023-03-17T22:25:53.233Z,18.27
2023-03-17T22:28:20.443Z,16.33
2023-03-17T22:30:47.641Z,22.27
2023-03-17T22:33:14.922Z,14.33
2023-03-17T22:35:42.334Z,14.50
2023-03-17T22:38:11.202Z,18.43
2023-03-17T22:40:38.409Z,13.60
2023-03-17T22:43:05.587Z,14.73
2023-03-17T22:45:32.788Z,15.13
2023-03-17T22:48:00.016Z,18.67
2023-03-17T22:50:27.732Z,16.93
2023-03-17T22:52:56.123Z,18.80
2023-03-17T22:55:23.434Z,23.80
2023-03-17T22:57:50.693Z,22.23
2023-03-17T23:00:18.200Z,24.10
2023-03-17T23:02:46.298Z,16.20
2023-03-17T23:05:14.382Z,21.47
2023-03-17T23:07:50.423Z,15.50
2023-03-17T23:10:21.929Z,21.90
2023-03-17T23:12:50.676Z,16.80
2023-03-17T23:15:18.727Z,17.70
2023-03-17T23:17:46.919Z,15.33
2023-03-17T23:20:14.987Z,22.80
2023-03-17T23:22:42.166Z,16.20
2023-03-17T23:25:09.631Z,20.37
2023-03-17T23:27:36.776Z,14.50
2023-03-17T23:30:06.014Z,17.70
2023-03-17T23:32:34.134Z,16.10
2023-03-17T23:35:01.385Z,16.97
2023-03-17T23:37:28.814Z,16.43
2023-03-17T23:39:56.343Z,16.10
2023-03-17T23:42:23.474Z,20.23
2023-03-17T23:44:51.547Z,16.70
2023-03-17T23:47:20.492Z,14.27
2023-03-17T23:49:47.752Z,16.13
2023-03-17T23:52:15.376Z,16.57
2023-03-17T23:54:43.929Z,15.20
2023-03-17T23:57:11.118Z,17.07
2023-03-17T23:59:38.299Z,15.97
